sensor_id;sensor_type;location;lat;lon;timestamp;P1;durP1;ratioP1;P2;durP2;ratioP2
10894;SDS011;5500;49.886;8.074;2022-12-29T00:00:22;5.13;;;2.47;;
10894;SDS011;5500;49.886;8.074;2022-12-29T00:02:51;4.43;;;2.23;;
10894;SDS011;5500;49.886;8.074;2022-12-29T00:05:19;5.60;;;2.47;;
10894;SDS011;5500;49.886;8.074;2022-12-29T00:07:47;3.43;;;2.27;;
10894;SDS011;5500;49.886;8.074;2022-12-29T00:10:15;2.80;;;2.10;;
10894;SDS011;5500;49.886;8.074;2022-12-29T00:12:43;3.03;;;1.90;;
10894;SDS011;5500;49.886;8.074;2022-12-29T00:15:28;3.97;;;2.07;;
10894;SDS011;5500;49.886;8.074;2022-12-29T00:18:06;3.40;;;2.03;;
10894;SDS011;5500;49.886;8.074;2022-12-29T00:20:34;2.03;;;1.70;;
10894;SDS011;5500;49.886;8.074;2022-12-29T00:23:20;3.40;;;2.00;;
10894;SDS011;5500;49.886;8.074;2022-12-29T00:26:17;3.00;;;2.10;;
10894;SDS011;5500;49.886;8.074;2022-12-29T00:29:02;3.47;;;1.97;;
10894;SDS011;5500;49.886;8.074;2022-12-29T00:32:03;3.90;;;1.93;;
10894;SDS011;5500;49.886;8.074;2022-12-29T00:34:49;3.67;;;2.20;;
10894;SDS011;5500;49.886;8.074;2022-12-29T00:37:36;2.70;;;1.90;;
10894;SDS011;5500;49.886;8.074;2022-12-29T00:40:22;1.87;;;1.70;;
10894;SDS011;5500;49.886;8.074;2022-12-29T00:43:07;2.23;;;2.00;;
10894;SDS011;5500;49.886;8.074;2022-12-29T00:45:53;4.20;;;2.00;;
10894;SDS011;5500;49.886;8.074;2022-12-29T00:48:21;2.90;;;2.03;;
10894;SDS011;5500;49.886;8.074;2022-12-29T00:51:05;3.23;;;1.83;;
10894;SDS011;5500;49.886;8.074;2022-12-29T00:53:33;2.00;;;1.80;;
10894;SDS011;5500;49.886;8.074;2022-12-29T00:56:01;3.00;;;1.80;;
10894;SDS011;5500;49.886;8.074;2022-12-29T00:58:28;2.27;;;1.80;;
10894;SDS011;5500;49.886;8.074;2022-12-29T01:01:00;3.63;;;1.97;;
10894;SDS011;5500;49.886;8.074;2022-12-29T01:03:29;3.13;;;1.80;;
10894;SDS011;5500;49.886;8.074;2022-12-29T01:05:59;3.83;;;2.30;;
10894;SDS011;5500;49.886;8.074;2022-12-29T01:08:28;2.87;;;2.03;;
10894;SDS011;5500;49.886;8.074;2022-12-29T01:10:59;4.63;;;2.20;;
10894;SDS011;5500;49.886;8.074;2022-12-29T01:13:26;3.73;;;2.30;;
10894;SDS011;5500;49.886;8.074;2022-12-29T01:15:54;3.47;;;1.83;;
10894;SDS011;5500;49.886;8.074;2022-12-29T01:18:22;3.23;;;1.97;;
10894;SDS011;5500;49.886;8.074;2022-12-29T01:20:50;2.10;;;1.60;;
10894;SDS011;5500;49.886;8.074;2022-12-29T01:23:18;3.70;;;2.03;;
10894;SDS011;5500;49.886;8.074;2022-12-29T01:25:47;5.73;;;2.10;;
10894;SDS011;5500;49.886;8.074;2022-12-29T01:28:15;2.97;;;2.13;;
10894;SDS011;5500;49.886;8.074;2022-12-29T01:30:50;2.00;;;1.80;;
10894;SDS011;5500;49.886;8.074;2022-12-29T01:33:18;5.17;;;2.20;;
10894;SDS011;5500;49.886;8.074;2022-12-29T01:35:46;3.30;;;1.77;;
10894;SDS011;5500;49.886;8.074;2022-12-29T01:38:14;4.90;;;2.33;;
10894;SDS011;5500;49.886;8.074;2022-12-29T01:40:44;2.20;;;1.83;;
10894;SDS011;5500;49.886;8.074;2022-12-29T01:43:13;2.10;;;1.57;;
10894;SDS011;5500;49.886;8.074;2022-12-29T01:45:42;2.40;;;1.90;;
10894;SDS011;5500;49.886;8.074;2022-12-29T01:48:12;2.70;;;1.80;;
10894;SDS011;5500;49.886;8.074;2022-12-29T01:50:41;1.93;;;1.50;;
10894;SDS011;5500;49.886;8.074;2022-12-29T01:53:11;1.90;;;1.70;;
10894;SDS011;5500;49.886;8.074;2022-12-29T01:55:44;3.97;;;1.90;;
10894;SDS011;5500;49.886;8.074;2022-12-29T01:58:15;3.80;;;2.00;;
10894;SDS011;5500;49.886;8.074;2022-12-29T02:00:45;4.10;;;2.27;;
10894;SDS011;5500;49.886;8.074;2022-12-29T02:03:13;5.70;;;1.87;;
10894;SDS011;5500;49.886;8.074;2022-12-29T02:05:43;2.67;;;1.80;;
10894;SDS011;5500;49.886;8.074;2022-12-29T02:08:13;3.10;;;1.80;;
10894;SDS011;5500;49.886;8.074;2022-12-29T02:10:41;5.37;;;2.10;;
10894;SDS011;5500;49.886;8.074;2022-12-29T02:13:10;2.83;;;1.87;;
10894;SDS011;5500;49.886;8.074;2022-12-29T02:15:42;2.43;;;1.83;;
10894;SDS011;5500;49.886;8.074;2022-12-29T02:18:18;3.47;;;1.90;;
10894;SDS011;5500;49.886;8.074;2022-12-29T02:24:24;2.67;;;1.50;;
10894;SDS011;5500;49.886;8.074;2022-12-29T02:27:25;2.40;;;1.30;;
10894;SDS011;5500;49.886;8.074;2022-12-29T02:30:06;2.53;;;1.50;;
10894;SDS011;5500;49.886;8.074;2022-12-29T02:32:38;2.43;;;1.27;;
10894;SDS011;5500;49.886;8.074;2022-12-29T02:35:14;2.27;;;1.53;;
10894;SDS011;5500;49.886;8.074;2022-12-29T02:37:49;5.27;;;1.50;;
10894;SDS011;5500;49.886;8.074;2022-12-29T02:40:24;4.67;;;1.57;;
10894;SDS011;5500;49.886;8.074;2022-12-29T02:42:58;1.50;;;1.40;;
10894;SDS011;5500;49.886;8.074;2022-12-29T02:45:31;1.50;;;1.40;;
10894;SDS011;5500;49.886;8.074;2022-12-29T02:48:04;1.67;;;1.30;;
10894;SDS011;5500;49.886;8.074;2022-12-29T02:50:37;3.70;;;1.60;;
10894;SDS011;5500;49.886;8.074;2022-12-29T02:53:07;2.80;;;1.20;;
10894;SDS011;5500;49.886;8.074;2022-12-29T02:55:37;2.20;;;1.60;;
10894;SDS011;5500;49.886;8.074;2022-12-29T02:58:15;1.67;;;1.40;;
10894;SDS011;5500;49.886;8.074;2022-12-29T03:00:48;2.13;;;1.20;;
10894;SDS011;5500;49.886;8.074;2022-12-29T03:03:27;2.60;;;1.90;;
10894;SDS011;5500;49.886;8.074;2022-12-29T03:06:06;3.47;;;1.70;;
10894;SDS011;5500;49.886;8.074;2022-12-29T03:08:44;2.43;;;1.73;;
10894;SDS011;5500;49.886;8.074;2022-12-29T03:11:16;3.97;;;1.60;;
10894;SDS011;5500;49.886;8.074;2022-12-29T03:14:02;3.07;;;1.50;;
10894;SDS011;5500;49.886;8.074;2022-12-29T03:16:52;4.37;;;1.60;;
10894;SDS011;5500;49.886;8.074;2022-12-29T03:19:23;1.90;;;1.67;;
10894;SDS011;5500;49.886;8.074;2022-12-29T03:21:54;2.17;;;1.70;;
10894;SDS011;5500;49.886;8.074;2022-12-29T03:24:43;3.03;;;1.40;;
10894;SDS011;5500;49.886;8.074;2022-12-29T03:27:13;2.10;;;1.50;;
10894;SDS011;5500;49.886;8.074;2022-12-29T03:29:45;4.87;;;1.77;;
10894;SDS011;5500;49.886;8.074;2022-12-29T03:32:18;2.53;;;1.60;;
10894;SDS011;5500;49.886;8.074;2022-12-29T03:34:49;2.90;;;1.50;;
10894;SDS011;5500;49.886;8.074;2022-12-29T03:37:18;2.90;;;1.80;;
10894;SDS011;5500;49.886;8.074;2022-12-29T03:39:48;2.40;;;1.63;;
10894;SDS011;5500;49.886;8.074;2022-12-29T03:42:17;2.47;;;1.60;;
10894;SDS011;5500;49.886;8.074;2022-12-29T03:44:47;3.00;;;1.60;;
10894;SDS011;5500;49.886;8.074;2022-12-29T03:47:15;3.93;;;1.80;;
10894;SDS011;5500;49.886;8.074;2022-12-29T03:49:43;4.83;;;1.73;;
10894;SDS011;5500;49.886;8.074;2022-12-29T03:52:12;3.63;;;1.73;;
10894;SDS011;5500;49.886;8.074;2022-12-29T03:54:40;3.53;;;1.50;;
10894;SDS011;5500;49.886;8.074;2022-12-29T03:57:08;2.90;;;1.73;;
10894;SDS011;5500;49.886;8.074;2022-12-29T03:59:36;4.43;;;1.57;;
10894;SDS011;5500;49.886;8.074;2022-12-29T04:02:04;4.40;;;1.47;;
10894;SDS011;5500;49.886;8.074;2022-12-29T04:04:31;1.57;;;1.37;;
10894;SDS011;5500;49.886;8.074;2022-12-29T04:06:59;4.20;;;1.70;;
10894;SDS011;5500;49.886;8.074;2022-12-29T04:09:28;2.43;;;1.53;;
10894;SDS011;5500;49.886;8.074;2022-12-29T04:11:57;3.07;;;1.93;;
10894;SDS011;5500;49.886;8.074;2022-12-29T04:14:25;3.17;;;1.70;;
10894;SDS011;5500;49.886;8.074;2022-12-29T04:16:52;3.23;;;1.70;;
10894;SDS011;5500;49.886;8.074;2022-12-29T04:19:20;3.10;;;1.70;;
10894;SDS011;5500;49.886;8.074;2022-12-29T04:21:48;2.73;;;1.67;;
10894;SDS011;5500;49.886;8.074;2022-12-29T04:24:16;2.17;;;1.67;;
10894;SDS011;5500;49.886;8.074;2022-12-29T04:26:45;1.70;;;1.27;;
10894;SDS011;5500;49.886;8.074;2022-12-29T04:29:13;2.17;;;1.63;;
10894;SDS011;5500;49.886;8.074;2022-12-29T04:31:41;1.47;;;1.37;;
10894;SDS011;5500;49.886;8.074;2022-12-29T04:34:09;4.17;;;2.20;;
10894;SDS011;5500;49.886;8.074;2022-12-29T04:36:36;3.20;;;1.50;;
10894;SDS011;5500;49.886;8.074;2022-12-29T04:39:06;1.93;;;1.53;;
10894;SDS011;5500;49.886;8.074;2022-12-29T04:41:34;2.97;;;1.63;;
10894;SDS011;5500;49.886;8.074;2022-12-29T04:44:03;1.83;;;1.67;;
10894;SDS011;5500;49.886;8.074;2022-12-29T04:46:30;4.03;;;1.60;;
10894;SDS011;5500;49.886;8.074;2022-12-29T04:48:59;3.00;;;1.63;;
10894;SDS011;5500;49.886;8.074;2022-12-29T04:51:33;2.17;;;1.37;;
10894;SDS011;5500;49.886;8.074;2022-12-29T04:54:01;3.13;;;1.60;;
10894;SDS011;5500;49.886;8.074;2022-12-29T04:56:29;4.00;;;1.67;;
10894;SDS011;5500;49.886;8.074;2022-12-29T04:58:57;4.43;;;2.17;;
10894;SDS011;5500;49.886;8.074;2022-12-29T05:01:26;3.07;;;1.60;;
10894;SDS011;5500;49.886;8.074;2022-12-29T05:03:54;3.57;;;1.50;;
10894;SDS011;5500;49.886;8.074;2022-12-29T05:06:22;4.70;;;1.40;;
10894;SDS011;5500;49.886;8.074;2022-12-29T05:08:49;4.10;;;1.60;;
10894;SDS011;5500;49.886;8.074;2022-12-29T05:11:17;6.00;;;1.60;;
10894;SDS011;5500;49.886;8.074;2022-12-29T05:13:45;4.87;;;1.90;;
10894;SDS011;5500;49.886;8.074;2022-12-29T05:16:13;5.53;;;1.30;;
10894;SDS011;5500;49.886;8.074;2022-12-29T05:18:42;2.03;;;1.40;;
10894;SDS011;5500;49.886;8.074;2022-12-29T05:21:10;1.60;;;1.50;;
10894;SDS011;5500;49.886;8.074;2022-12-29T05:23:37;1.63;;;1.40;;
10894;SDS011;5500;49.886;8.074;2022-12-29T05:26:05;2.87;;;1.67;;
10894;SDS011;5500;49.886;8.074;2022-12-29T05:28:33;2.10;;;1.90;;
10894;SDS011;5500;49.886;8.074;2022-12-29T05:31:00;2.90;;;1.53;;
10894;SDS011;5500;49.886;8.074;2022-12-29T05:33:28;1.93;;;1.60;;
10894;SDS011;5500;49.886;8.074;2022-12-29T05:35:57;3.30;;;1.53;;
10894;SDS011;5500;49.886;8.074;2022-12-29T05:38:31;2.60;;;1.27;;
10894;SDS011;5500;49.886;8.074;2022-12-29T05:40:58;2.77;;;1.63;;
10894;SDS011;5500;49.886;8.074;2022-12-29T05:43:26;2.80;;;1.87;;
10894;SDS011;5500;49.886;8.074;2022-12-29T05:45:54;2.03;;;1.40;;
10894;SDS011;5500;49.886;8.074;2022-12-29T05:48:22;2.83;;;1.40;;
10894;SDS011;5500;49.886;8.074;2022-12-29T05:50:50;1.67;;;1.20;;
10894;SDS011;5500;49.886;8.074;2022-12-29T05:53:19;3.07;;;1.30;;
10894;SDS011;5500;49.886;8.074;2022-12-29T05:55:47;3.17;;;1.47;;
10894;SDS011;5500;49.886;8.074;2022-12-29T05:58:15;2.30;;;1.50;;
10894;SDS011;5500;49.886;8.074;2022-12-29T06:00:43;2.80;;;1.27;;
10894;SDS011;5500;49.886;8.074;2022-12-29T06:03:11;2.27;;;1.60;;
10894;SDS011;5500;49.886;8.074;2022-12-29T06:05:39;3.03;;;1.70;;
10894;SDS011;5500;49.886;8.074;2022-12-29T06:08:06;1.63;;;1.30;;
10894;SDS011;5500;49.886;8.074;2022-12-29T06:10:35;2.30;;;1.47;;
10894;SDS011;5500;49.886;8.074;2022-12-29T06:13:03;1.33;;;1.20;;
10894;SDS011;5500;49.886;8.074;2022-12-29T06:15:32;5.90;;;1.53;;
10894;SDS011;5500;49.886;8.074;2022-12-29T06:18:00;2.93;;;1.50;;
10894;SDS011;5500;49.886;8.074;2022-12-29T06:20:27;4.67;;;1.43;;
10894;SDS011;5500;49.886;8.074;2022-12-29T06:22:55;2.20;;;1.40;;
10894;SDS011;5500;49.886;8.074;2022-12-29T06:25:23;1.80;;;1.50;;
10894;SDS011;5500;49.886;8.074;2022-12-29T06:27:52;4.50;;;1.90;;
10894;SDS011;5500;49.886;8.074;2022-12-29T06:30:20;3.67;;;1.60;;
10894;SDS011;5500;49.886;8.074;2022-12-29T06:32:48;2.07;;;1.50;;
10894;SDS011;5500;49.886;8.074;2022-12-29T06:35:16;1.50;;;1.37;;
10894;SDS011;5500;49.886;8.074;2022-12-29T06:37:43;3.37;;;1.90;;
10894;SDS011;5500;49.886;8.074;2022-12-29T06:40:11;3.13;;;1.80;;
10894;SDS011;5500;49.886;8.074;2022-12-29T06:42:39;2.33;;;1.50;;
10894;SDS011;5500;49.886;8.074;2022-12-29T06:45:08;4.03;;;1.57;;
10894;SDS011;5500;49.886;8.074;2022-12-29T06:47:37;3.50;;;1.80;;
10894;SDS011;5500;49.886;8.074;2022-12-29T06:50:05;3.40;;;1.67;;
10894;SDS011;5500;49.886;8.074;2022-12-29T06:52:33;6.50;;;1.90;;
10894;SDS011;5500;49.886;8.074;2022-12-29T06:55:01;2.77;;;1.60;;
10894;SDS011;5500;49.886;8.074;2022-12-29T06:57:31;5.13;;;1.70;;
10894;SDS011;5500;49.886;8.074;2022-12-29T06:59:59;3.63;;;1.80;;
10894;SDS011;5500;49.886;8.074;2022-12-29T07:02:28;4.37;;;2.00;;
10894;SDS011;5500;49.886;8.074;2022-12-29T07:04:56;2.10;;;1.90;;
10894;SDS011;5500;49.886;8.074;2022-12-29T07:07:24;2.23;;;1.60;;
10894;SDS011;5500;49.886;8.074;2022-12-29T07:09:53;3.40;;;1.83;;
10894;SDS011;5500;49.886;8.074;2022-12-29T07:12:21;2.87;;;1.97;;
10894;SDS011;5500;49.886;8.074;2022-12-29T07:14:49;2.43;;;1.80;;
10894;SDS011;5500;49.886;8.074;2022-12-29T07:17:16;5.00;;;2.57;;
10894;SDS011;5500;49.886;8.074;2022-12-29T07:19:45;2.33;;;2.00;;
10894;SDS011;5500;49.886;8.074;2022-12-29T07:22:13;2.30;;;2.00;;
10894;SDS011;5500;49.886;8.074;2022-12-29T07:24:41;5.37;;;2.47;;
10894;SDS011;5500;49.886;8.074;2022-12-29T07:27:09;4.13;;;1.83;;
10894;SDS011;5500;49.886;8.074;2022-12-29T07:29:37;4.13;;;2.13;;
10894;SDS011;5500;49.886;8.074;2022-12-29T07:32:05;3.03;;;2.20;;
10894;SDS011;5500;49.886;8.074;2022-12-29T07:34:33;3.40;;;2.10;;
10894;SDS011;5500;49.886;8.074;2022-12-29T07:37:02;3.07;;;2.30;;
10894;SDS011;5500;49.886;8.074;2022-12-29T07:39:30;2.93;;;2.30;;
10894;SDS011;5500;49.886;8.074;2022-12-29T07:41:57;5.50;;;2.40;;
10894;SDS011;5500;49.886;8.074;2022-12-29T07:44:30;4.07;;;2.20;;
10894;SDS011;5500;49.886;8.074;2022-12-29T07:46:58;3.90;;;2.47;;
10894;SDS011;5500;49.886;8.074;2022-12-29T07:49:27;3.30;;;1.90;;
10894;SDS011;5500;49.886;8.074;2022-12-29T07:51:55;4.07;;;2.40;;
10894;SDS011;5500;49.886;8.074;2022-12-29T07:54:24;5.13;;;2.20;;
10894;SDS011;5500;49.886;8.074;2022-12-29T07:56:52;4.03;;;2.47;;
10894;SDS011;5500;49.886;8.074;2022-12-29T07:59:20;3.37;;;2.20;;
10894;SDS011;5500;49.886;8.074;2022-12-29T08:01:47;2.33;;;2.13;;
10894;SDS011;5500;49.886;8.074;2022-12-29T08:04:16;2.30;;;2.10;;
10894;SDS011;5500;49.886;8.074;2022-12-29T08:06:44;4.50;;;2.40;;
10894;SDS011;5500;49.886;8.074;2022-12-29T08:09:12;5.03;;;3.23;;
10894;SDS011;5500;49.886;8.074;2022-12-29T08:11:49;2.60;;;2.10;;
10894;SDS011;5500;49.886;8.074;2022-12-29T08:14:16;4.90;;;2.13;;
10894;SDS011;5500;49.886;8.074;2022-12-29T08:16:44;4.70;;;2.43;;
10894;SDS011;5500;49.886;8.074;2022-12-29T08:19:12;3.47;;;2.00;;
10894;SDS011;5500;49.886;8.074;2022-12-29T08:21:40;2.90;;;2.60;;
10894;SDS011;5500;49.886;8.074;2022-12-29T08:24:08;4.80;;;2.33;;
10894;SDS011;5500;49.886;8.074;2022-12-29T08:26:36;4.50;;;2.33;;
10894;SDS011;5500;49.886;8.074;2022-12-29T08:29:06;8.13;;;2.80;;
10894;SDS011;5500;49.886;8.074;2022-12-29T08:31:33;4.20;;;2.23;;
10894;SDS011;5500;49.886;8.074;2022-12-29T08:34:01;4.13;;;2.13;;
10894;SDS011;5500;49.886;8.074;2022-12-29T08:36:30;4.37;;;2.60;;
10894;SDS011;5500;49.886;8.074;2022-12-29T08:38:58;3.57;;;2.10;;
10894;SDS011;5500;49.886;8.074;2022-12-29T08:41:29;5.43;;;2.40;;
10894;SDS011;5500;49.886;8.074;2022-12-29T08:43:57;4.43;;;2.43;;
10894;SDS011;5500;49.886;8.074;2022-12-29T08:46:26;5.37;;;2.70;;
10894;SDS011;5500;49.886;8.074;2022-12-29T08:48:54;2.57;;;2.10;;
10894;SDS011;5500;49.886;8.074;2022-12-29T08:51:22;3.00;;;2.20;;
10894;SDS011;5500;49.886;8.074;2022-12-29T08:53:50;3.60;;;2.50;;
10894;SDS011;5500;49.886;8.074;2022-12-29T08:56:18;2.57;;;2.30;;
10894;SDS011;5500;49.886;8.074;2022-12-29T08:58:46;5.33;;;2.50;;
10894;SDS011;5500;49.886;8.074;2022-12-29T09:01:14;6.60;;;2.67;;
10894;SDS011;5500;49.886;8.074;2022-12-29T09:03:43;4.00;;;2.63;;
10894;SDS011;5500;49.886;8.074;2022-12-29T09:06:31;6.40;;;3.40;;
10894;SDS011;5500;49.886;8.074;2022-12-29T09:09:05;9.00;;;2.77;;
10894;SDS011;5500;49.886;8.074;2022-12-29T09:11:34;4.20;;;2.60;;
10894;SDS011;5500;49.886;8.074;2022-12-29T09:14:02;7.03;;;2.93;;
10894;SDS011;5500;49.886;8.074;2022-12-29T09:16:30;4.77;;;2.50;;
10894;SDS011;5500;49.886;8.074;2022-12-29T09:18:59;5.93;;;2.80;;
10894;SDS011;5500;49.886;8.074;2022-12-29T09:21:27;4.07;;;2.40;;
10894;SDS011;5500;49.886;8.074;2022-12-29T09:23:55;5.80;;;3.17;;
10894;SDS011;5500;49.886;8.074;2022-12-29T09:26:23;7.40;;;2.90;;
10894;SDS011;5500;49.886;8.074;2022-12-29T09:28:51;3.40;;;2.73;;
10894;SDS011;5500;49.886;8.074;2022-12-29T09:31:19;4.27;;;2.97;;
10894;SDS011;5500;49.886;8.074;2022-12-29T09:33:48;4.67;;;3.10;;
10894;SDS011;5500;49.886;8.074;2022-12-29T09:36:17;4.63;;;2.53;;
10894;SDS011;5500;49.886;8.074;2022-12-29T09:38:45;7.53;;;3.00;;
10894;SDS011;5500;49.886;8.074;2022-12-29T09:41:14;3.70;;;2.53;;
10894;SDS011;5500;49.886;8.074;2022-12-29T09:43:49;3.33;;;2.80;;
10894;SDS011;5500;49.886;8.074;2022-12-29T09:46:24;3.50;;;1.83;;
10894;SDS011;5500;49.886;8.074;2022-12-29T09:48:55;2.30;;;1.77;;
10894;SDS011;5500;49.886;8.074;2022-12-29T09:51:29;1.73;;;1.40;;
10894;SDS011;5500;49.886;8.074;2022-12-29T09:54:00;4.77;;;1.60;;
10894;SDS011;5500;49.886;8.074;2022-12-29T09:56:30;1.73;;;1.20;;
10894;SDS011;5500;49.886;8.074;2022-12-29T09:58:59;3.07;;;1.27;;
10894;SDS011;5500;49.886;8.074;2022-12-29T10:01:30;1.40;;;1.07;;
10894;SDS011;5500;49.886;8.074;2022-12-29T10:04:00;2.77;;;1.37;;
10894;SDS011;5500;49.886;8.074;2022-12-29T10:06:35;2.10;;;0.60;;
10894;SDS011;5500;49.886;8.074;2022-12-29T10:09:26;2.20;;;1.10;;
10894;SDS011;5500;49.886;8.074;2022-12-29T10:12:02;2.97;;;1.07;;
10894;SDS011;5500;49.886;8.074;2022-12-29T10:14:45;1.60;;;0.97;;
10894;SDS011;5500;49.886;8.074;2022-12-29T10:17:23;2.63;;;1.17;;
10894;SDS011;5500;49.886;8.074;2022-12-29T10:20:01;1.20;;;1.10;;
10894;SDS011;5500;49.886;8.074;2022-12-29T10:22:42;2.30;;;0.73;;
10894;SDS011;5500;49.886;8.074;2022-12-29T10:25:16;1.50;;;0.80;;
10894;SDS011;5500;49.886;8.074;2022-12-29T10:27:47;0.83;;;0.60;;
10894;SDS011;5500;49.886;8.074;2022-12-29T10:30:15;4.70;;;1.10;;
10894;SDS011;5500;49.886;8.074;2022-12-29T10:32:45;2.60;;;0.87;;
10894;SDS011;5500;49.886;8.074;2022-12-29T10:35:17;0.97;;;0.90;;
10894;SDS011;5500;49.886;8.074;2022-12-29T10:37:50;1.70;;;1.10;;
10894;SDS011;5500;49.886;8.074;2022-12-29T10:40:23;2.37;;;0.60;;
10894;SDS011;5500;49.886;8.074;2022-12-29T10:42:53;1.83;;;0.90;;
10894;SDS011;5500;49.886;8.074;2022-12-29T10:45:23;2.27;;;0.73;;
10894;SDS011;5500;49.886;8.074;2022-12-29T10:47:56;1.07;;;0.80;;
10894;SDS011;5500;49.886;8.074;2022-12-29T10:50:27;1.17;;;0.90;;
10894;SDS011;5500;49.886;8.074;2022-12-29T10:52:57;0.90;;;0.77;;
10894;SDS011;5500;49.886;8.074;2022-12-29T10:55:27;2.30;;;0.83;;
10894;SDS011;5500;49.886;8.074;2022-12-29T10:57:59;1.07;;;0.70;;
10894;SDS011;5500;49.886;8.074;2022-12-29T11:00:31;1.27;;;0.90;;
10894;SDS011;5500;49.886;8.074;2022-12-29T11:05:52;1.27;;;0.90;;
10894;SDS011;5500;49.886;8.074;2022-12-29T11:08:27;1.57;;;1.20;;
10894;SDS011;5500;49.886;8.074;2022-12-29T11:10:58;3.00;;;0.77;;
10894;SDS011;5500;49.886;8.074;2022-12-29T11:13:28;2.63;;;1.10;;
10894;SDS011;5500;49.886;8.074;2022-12-29T11:16:04;2.50;;;1.10;;
10894;SDS011;5500;49.886;8.074;2022-12-29T11:18:33;2.40;;;1.13;;
10894;SDS011;5500;49.886;8.074;2022-12-29T11:21:04;3.00;;;1.17;;
10894;SDS011;5500;49.886;8.074;2022-12-29T11:23:35;2.30;;;0.80;;
10894;SDS011;5500;49.886;8.074;2022-12-29T11:26:14;1.13;;;0.90;;
10894;SDS011;5500;49.886;8.074;2022-12-29T11:28:44;3.30;;;1.10;;
10894;SDS011;5500;49.886;8.074;2022-12-29T11:31:16;2.47;;;0.80;;
10894;SDS011;5500;49.886;8.074;2022-12-29T11:33:45;1.93;;;0.77;;
10894;SDS011;5500;49.886;8.074;2022-12-29T11:36:14;2.10;;;0.97;;
10894;SDS011;5500;49.886;8.074;2022-12-29T11:38:47;1.30;;;0.90;;
10894;SDS011;5500;49.886;8.074;2022-12-29T11:41:21;1.80;;;0.93;;
10894;SDS011;5500;49.886;8.074;2022-12-29T11:43:50;2.53;;;0.90;;
10894;SDS011;5500;49.886;8.074;2022-12-29T11:46:19;2.23;;;1.10;;
10894;SDS011;5500;49.886;8.074;2022-12-29T11:48:49;2.67;;;1.13;;
10894;SDS011;5500;49.886;8.074;2022-12-29T11:51:21;2.23;;;1.07;;
10894;SDS011;5500;49.886;8.074;2022-12-29T11:53:52;3.87;;;1.20;;
10894;SDS011;5500;49.886;8.074;2022-12-29T11:56:32;1.93;;;1.00;;
10894;SDS011;5500;49.886;8.074;2022-12-29T12:05:10;2.13;;;1.00;;
10894;SDS011;5500;49.886;8.074;2022-12-29T12:07:48;1.10;;;0.83;;
10894;SDS011;5500;49.886;8.074;2022-12-29T12:10:21;2.60;;;1.10;;
10894;SDS011;5500;49.886;8.074;2022-12-29T12:12:55;1.10;;;1.00;;
10894;SDS011;5500;49.886;8.074;2022-12-29T12:15:27;1.10;;;1.00;;
10894;SDS011;5500;49.886;8.074;2022-12-29T12:18:00;3.00;;;1.10;;
10894;SDS011;5500;49.886;8.074;2022-12-29T12:20:36;1.73;;;1.07;;
10894;SDS011;5500;49.886;8.074;2022-12-29T12:23:12;2.13;;;1.17;;
10894;SDS011;5500;49.886;8.074;2022-12-29T12:25:47;3.03;;;1.00;;
10894;SDS011;5500;49.886;8.074;2022-12-29T12:28:21;1.03;;;0.93;;
10894;SDS011;5500;49.886;8.074;2022-12-29T12:31:02;3.90;;;1.33;;
10894;SDS011;5500;49.886;8.074;2022-12-29T12:33:35;2.10;;;1.10;;
10894;SDS011;5500;49.886;8.074;2022-12-29T12:36:14;2.07;;;1.20;;
10894;SDS011;5500;49.886;8.074;2022-12-29T12:38:52;1.63;;;0.97;;
10894;SDS011;5500;49.886;8.074;2022-12-29T12:41:26;2.27;;;1.20;;
10894;SDS011;5500;49.886;8.074;2022-12-29T12:44:00;2.93;;;1.03;;
10894;SDS011;5500;49.886;8.074;2022-12-29T12:52:36;4.67;;;1.20;;
10894;SDS011;5500;49.886;8.074;2022-12-29T12:55:18;3.87;;;1.30;;
10894;SDS011;5500;49.886;8.074;2022-12-29T12:57:58;1.73;;;1.10;;
10894;SDS011;5500;49.886;8.074;2022-12-29T13:00:32;3.23;;;1.00;;
10894;SDS011;5500;49.886;8.074;2022-12-29T13:03:05;4.03;;;1.40;;
10894;SDS011;5500;49.886;8.074;2022-12-29T13:05:50;2.83;;;1.43;;
10894;SDS011;5500;49.886;8.074;2022-12-29T13:08:39;2.27;;;1.17;;
10894;SDS011;5500;49.886;8.074;2022-12-29T13:11:17;1.80;;;1.20;;
10894;SDS011;5500;49.886;8.074;2022-12-29T13:13:54;2.53;;;1.00;;
10894;SDS011;5500;49.886;8.074;2022-12-29T13:16:32;4.90;;;1.20;;
10894;SDS011;5500;49.886;8.074;2022-12-29T13:19:03;2.43;;;0.80;;
10894;SDS011;5500;49.886;8.074;2022-12-29T13:21:37;4.43;;;1.50;;
10894;SDS011;5500;49.886;8.074;2022-12-29T13:24:23;1.77;;;1.20;;
10894;SDS011;5500;49.886;8.074;2022-12-29T13:26:53;2.43;;;1.17;;
10894;SDS011;5500;49.886;8.074;2022-12-29T13:29:27;2.33;;;1.37;;
10894;SDS011;5500;49.886;8.074;2022-12-29T13:32:02;2.67;;;1.10;;
10894;SDS011;5500;49.886;8.074;2022-12-29T13:34:42;1.87;;;1.17;;
10894;SDS011;5500;49.886;8.074;2022-12-29T13:37:14;5.30;;;1.33;;
10894;SDS011;5500;49.886;8.074;2022-12-29T13:39:43;2.57;;;1.10;;
10894;SDS011;5500;49.886;8.074;2022-12-29T13:42:15;4.80;;;1.30;;
10894;SDS011;5500;49.886;8.074;2022-12-29T13:44:46;5.03;;;1.07;;
10894;SDS011;5500;49.886;8.074;2022-12-29T13:47:20;3.33;;;1.10;;
10894;SDS011;5500;49.886;8.074;2022-12-29T13:49:51;3.13;;;1.13;;
10894;SDS011;5500;49.886;8.074;2022-12-29T13:52:21;1.30;;;1.20;;
10894;SDS011;5500;49.886;8.074;2022-12-29T13:54:55;3.30;;;1.20;;
10894;SDS011;5500;49.886;8.074;2022-12-29T13:57:31;2.53;;;1.23;;
10894;SDS011;5500;49.886;8.074;2022-12-29T14:00:11;3.87;;;1.67;;
10894;SDS011;5500;49.886;8.074;2022-12-29T14:02:42;2.77;;;1.30;;
10894;SDS011;5500;49.886;8.074;2022-12-29T14:05:28;5.57;;;1.30;;
10894;SDS011;5500;49.886;8.074;2022-12-29T14:07:57;3.97;;;1.20;;
10894;SDS011;5500;49.886;8.074;2022-12-29T14:10:27;4.23;;;1.23;;
10894;SDS011;5500;49.886;8.074;2022-12-29T14:13:00;4.53;;;1.77;;
10894;SDS011;5500;49.886;8.074;2022-12-29T14:15:31;3.73;;;1.33;;
10894;SDS011;5500;49.886;8.074;2022-12-29T14:18:04;2.73;;;1.37;;
10894;SDS011;5500;49.886;8.074;2022-12-29T14:20:38;3.13;;;0.97;;
10894;SDS011;5500;49.886;8.074;2022-12-29T14:23:17;3.03;;;1.20;;
10894;SDS011;5500;49.886;8.074;2022-12-29T14:26:09;7.30;;;1.50;;
10894;SDS011;5500;49.886;8.074;2022-12-29T14:28:39;2.47;;;1.10;;
10894;SDS011;5500;49.886;8.074;2022-12-29T14:36:58;6.10;;;1.37;;
10894;SDS011;5500;49.886;8.074;2022-12-29T14:39:34;3.50;;;1.70;;
10894;SDS011;5500;49.886;8.074;2022-12-29T14:42:05;2.63;;;1.20;;
10894;SDS011;5500;49.886;8.074;2022-12-29T14:44:34;3.40;;;1.10;;
10894;SDS011;5500;49.886;8.074;2022-12-29T14:47:05;5.17;;;1.50;;
10894;SDS011;5500;49.886;8.074;2022-12-29T14:49:39;6.60;;;1.50;;
10894;SDS011;5500;49.886;8.074;2022-12-29T14:52:13;2.17;;;1.13;;
10894;SDS011;5500;49.886;8.074;2022-12-29T14:54:43;5.03;;;1.37;;
10894;SDS011;5500;49.886;8.074;2022-12-29T14:57:22;3.97;;;1.50;;
10894;SDS011;5500;49.886;8.074;2022-12-29T14:59:53;5.10;;;1.67;;
10894;SDS011;5500;49.886;8.074;2022-12-29T15:02:25;3.60;;;1.33;;
10894;SDS011;5500;49.886;8.074;2022-12-29T15:04:54;3.53;;;1.40;;
10894;SDS011;5500;49.886;8.074;2022-12-29T15:07:22;4.30;;;1.10;;
10894;SDS011;5500;49.886;8.074;2022-12-29T15:09:51;2.83;;;1.10;;
10894;SDS011;5500;49.886;8.074;2022-12-29T15:12:23;4.07;;;1.20;;
10894;SDS011;5500;49.886;8.074;2022-12-29T15:14:59;2.50;;;1.27;;
10894;SDS011;5500;49.886;8.074;2022-12-29T15:17:29;5.30;;;1.40;;
10894;SDS011;5500;49.886;8.074;2022-12-29T15:19:58;4.37;;;1.27;;
10894;SDS011;5500;49.886;8.074;2022-12-29T15:22:27;2.57;;;1.00;;
10894;SDS011;5500;49.886;8.074;2022-12-29T15:24:55;2.77;;;1.20;;
10894;SDS011;5500;49.886;8.074;2022-12-29T15:27:24;4.40;;;1.30;;
10894;SDS011;5500;49.886;8.074;2022-12-29T15:29:57;5.90;;;1.60;;
10894;SDS011;5500;49.886;8.074;2022-12-29T15:32:26;3.70;;;0.87;;
10894;SDS011;5500;49.886;8.074;2022-12-29T15:34:56;2.50;;;1.10;;
10894;SDS011;5500;49.886;8.074;2022-12-29T15:37:27;6.57;;;1.40;;
10894;SDS011;5500;49.886;8.074;2022-12-29T15:39:55;3.50;;;1.40;;
10894;SDS011;5500;49.886;8.074;2022-12-29T15:42:27;2.40;;;1.23;;
10894;SDS011;5500;49.886;8.074;2022-12-29T15:45:00;3.57;;;1.37;;
10894;SDS011;5500;49.886;8.074;2022-12-29T15:47:36;3.87;;;1.40;;
10894;SDS011;5500;49.886;8.074;2022-12-29T15:50:07;2.87;;;1.10;;